sensor_id;sensor_type;location;lat;lon;timestamp;P1;durP1;ratioP1;P2;durP2;ratioP2
72575;SDS011;60613;48.658;2.328;2022-10-16T00:01:04;3.78;;;1.10;;
72575;SDS011;60613;48.658;2.328;2022-10-16T00:03:34;2.95;;;1.00;;
72575;SDS011;60613;48.658;2.328;2022-10-16T00:06:00;3.13;;;1.00;;
72575;SDS011;60613;48.658;2.328;2022-10-16T00:08:26;2.83;;;0.90;;
72575;SDS011;60613;48.658;2.328;2022-10-16T00:10:52;3.40;;;1.03;;
72575;SDS011;60613;48.658;2.328;2022-10-16T00:13:23;3.15;;;0.90;;
72575;SDS011;60613;48.658;2.328;2022-10-16T00:15:48;3.65;;;1.10;;
72575;SDS011;60613;48.658;2.328;2022-10-16T00:18:14;3.17;;;0.93;;
72575;SDS011;60613;48.658;2.328;2022-10-16T00:20:39;3.27;;;1.00;;
72575;SDS011;60613;48.658;2.328;2022-10-16T00:23:05;2.63;;;0.90;;
72575;SDS011;60613;48.658;2.328;2022-10-16T00:25:31;3.30;;;0.90;;
72575;SDS011;60613;48.658;2.328;2022-10-16T00:27:58;4.63;;;1.00;;
72575;SDS011;60613;48.658;2.328;2022-10-16T00:30:24;3.10;;;0.90;;
72575;SDS011;60613;48.658;2.328;2022-10-16T00:32:52;3.92;;;0.85;;
72575;SDS011;60613;48.658;2.328;2022-10-16T00:35:18;1.87;;;0.87;;
72575;SDS011;60613;48.658;2.328;2022-10-16T00:37:43;3.15;;;1.00;;
72575;SDS011;60613;48.658;2.328;2022-10-16T00:40:09;1.97;;;0.80;;
72575;SDS011;60613;48.658;2.328;2022-10-16T00:42:35;2.63;;;0.90;;
72575;SDS011;60613;48.658;2.328;2022-10-16T00:45:01;2.47;;;0.90;;
72575;SDS011;60613;48.658;2.328;2022-10-16T00:47:28;2.53;;;0.90;;
72575;SDS011;60613;48.658;2.328;2022-10-16T00:50:02;2.25;;;0.80;;
72575;SDS011;60613;48.658;2.328;2022-10-16T00:52:41;3.20;;;0.77;;
72575;SDS011;60613;48.658;2.328;2022-10-16T00:55:11;2.47;;;0.80;;
72575;SDS011;60613;48.658;2.328;2022-10-16T00:57:36;2.73;;;1.00;;
72575;SDS011;60613;48.658;2.328;2022-10-16T01:00:04;2.13;;;0.70;;
72575;SDS011;60613;48.658;2.328;2022-10-16T01:02:33;1.52;;;0.70;;
72575;SDS011;60613;48.658;2.328;2022-10-16T01:04:58;2.05;;;0.80;;
72575;SDS011;60613;48.658;2.328;2022-10-16T01:07:40;2.10;;;0.70;;
72575;SDS011;60613;48.658;2.328;2022-10-16T01:13:05;2.70;;;0.80;;
72575;SDS011;60613;48.658;2.328;2022-10-16T01:15:41;2.03;;;0.80;;
72575;SDS011;60613;48.658;2.328;2022-10-16T01:18:32;1.80;;;0.70;;
72575;SDS011;60613;48.658;2.328;2022-10-16T01:21:44;1.70;;;0.70;;
72575;SDS011;60613;48.658;2.328;2022-10-16T01:29:21;2.50;;;0.70;;
72575;SDS011;60613;48.658;2.328;2022-10-16T01:31:59;1.87;;;0.70;;
72575;SDS011;60613;48.658;2.328;2022-10-16T01:34:35;3.70;;;0.80;;
72575;SDS011;60613;48.658;2.328;2022-10-16T01:37:12;2.28;;;0.80;;
72575;SDS011;60613;48.658;2.328;2022-10-16T01:39:42;2.80;;;0.70;;
72575;SDS011;60613;48.658;2.328;2022-10-16T01:42:15;2.30;;;0.68;;
72575;SDS011;60613;48.658;2.328;2022-10-16T01:44:45;1.43;;;0.50;;
72575;SDS011;60613;48.658;2.328;2022-10-16T01:47:13;2.25;;;0.70;;
72575;SDS011;60613;48.658;2.328;2022-10-16T01:49:40;3.20;;;0.63;;
72575;SDS011;60613;48.658;2.328;2022-10-16T01:52:09;1.52;;;0.60;;
72575;SDS011;60613;48.658;2.328;2022-10-16T01:54:40;2.10;;;0.73;;
72575;SDS011;60613;48.658;2.328;2022-10-16T01:57:10;3.37;;;0.80;;
72575;SDS011;60613;48.658;2.328;2022-10-16T01:59:38;2.17;;;0.70;;
72575;SDS011;60613;48.658;2.328;2022-10-16T02:02:14;1.27;;;0.60;;
72575;SDS011;60613;48.658;2.328;2022-10-16T02:04:44;1.30;;;0.60;;
72575;SDS011;60613;48.658;2.328;2022-10-16T02:07:13;1.13;;;0.60;;
72575;SDS011;60613;48.658;2.328;2022-10-16T02:09:39;1.70;;;0.53;;
72575;SDS011;60613;48.658;2.328;2022-10-16T02:12:16;1.70;;;0.55;;
72575;SDS011;60613;48.658;2.328;2022-10-16T02:14:48;1.98;;;0.70;;
72575;SDS011;60613;48.658;2.328;2022-10-16T02:17:15;2.17;;;0.70;;
72575;SDS011;60613;48.658;2.328;2022-10-16T02:19:42;2.03;;;0.60;;
72575;SDS011;60613;48.658;2.328;2022-10-16T02:22:12;2.25;;;0.60;;
72575;SDS011;60613;48.658;2.328;2022-10-16T02:24:49;0.75;;;0.40;;
72575;SDS011;60613;48.658;2.328;2022-10-16T02:27:26;1.88;;;0.50;;
72575;SDS011;60613;48.658;2.328;2022-10-16T02:29:59;1.13;;;0.50;;
72575;SDS011;60613;48.658;2.328;2022-10-16T02:32:36;1.42;;;0.57;;
72575;SDS011;60613;48.658;2.328;2022-10-16T02:35:05;1.58;;;0.50;;
72575;SDS011;60613;48.658;2.328;2022-10-16T02:37:32;2.08;;;0.60;;
72575;SDS011;60613;48.658;2.328;2022-10-16T02:39:58;0.90;;;0.40;;
72575;SDS011;60613;48.658;2.328;2022-10-16T02:42:28;2.10;;;0.50;;
72575;SDS011;60613;48.658;2.328;2022-10-16T02:44:57;2.75;;;0.73;;
72575;SDS011;60613;48.658;2.328;2022-10-16T02:47:23;1.43;;;0.50;;
72575;SDS011;60613;48.658;2.328;2022-10-16T02:49:48;1.58;;;0.50;;
72575;SDS011;60613;48.658;2.328;2022-10-16T02:52:14;1.00;;;0.50;;
72575;SDS011;60613;48.658;2.328;2022-10-16T02:54:40;1.63;;;0.50;;
72575;SDS011;60613;48.658;2.328;2022-10-16T02:57:05;2.07;;;0.50;;
72575;SDS011;60613;48.658;2.328;2022-10-16T02:59:31;1.23;;;0.50;;
72575;SDS011;60613;48.658;2.328;2022-10-16T03:01:56;1.58;;;0.40;;
72575;SDS011;60613;48.658;2.328;2022-10-16T03:04:22;2.30;;;0.50;;
72575;SDS011;60613;48.658;2.328;2022-10-16T03:06:48;2.00;;;0.50;;
72575;SDS011;60613;48.658;2.328;2022-10-16T03:09:15;1.70;;;0.40;;
72575;SDS011;60613;48.658;2.328;2022-10-16T03:11:40;1.20;;;0.50;;
72575;SDS011;60613;48.658;2.328;2022-10-16T03:14:06;1.03;;;0.40;;
72575;SDS011;60613;48.658;2.328;2022-10-16T03:16:32;1.48;;;0.40;;
72575;SDS011;60613;48.658;2.328;2022-10-16T03:18:58;1.42;;;0.50;;
72575;SDS011;60613;48.658;2.328;2022-10-16T03:21:23;1.07;;;0.40;;
72575;SDS011;60613;48.658;2.328;2022-10-16T03:23:49;1.42;;;0.50;;
72575;SDS011;60613;48.658;2.328;2022-10-16T03:26:15;1.30;;;0.40;;
72575;SDS011;60613;48.658;2.328;2022-10-16T03:28:41;0.80;;;0.40;;
72575;SDS011;60613;48.658;2.328;2022-10-16T03:31:06;1.53;;;0.43;;
72575;SDS011;60613;48.658;2.328;2022-10-16T03:33:33;0.90;;;0.43;;
72575;SDS011;60613;48.658;2.328;2022-10-16T03:35:58;1.90;;;0.50;;
72575;SDS011;60613;48.658;2.328;2022-10-16T03:38:25;0.80;;;0.40;;
72575;SDS011;60613;48.658;2.328;2022-10-16T03:40:50;2.22;;;0.50;;
72575;SDS011;60613;48.658;2.328;2022-10-16T03:43:16;1.30;;;0.40;;
72575;SDS011;60613;48.658;2.328;2022-10-16T03:45:42;1.85;;;0.50;;
72575;SDS011;60613;48.658;2.328;2022-10-16T03:48:08;1.08;;;0.40;;
72575;SDS011;60613;48.658;2.328;2022-10-16T03:50:33;0.90;;;0.40;;
72575;SDS011;60613;48.658;2.328;2022-10-16T03:52:59;1.67;;;0.50;;
72575;SDS011;60613;48.658;2.328;2022-10-16T03:55:24;0.80;;;0.40;;
72575;SDS011;60613;48.658;2.328;2022-10-16T03:57:50;1.23;;;0.43;;
72575;SDS011;60613;48.658;2.328;2022-10-16T04:00:16;1.70;;;0.50;;
72575;SDS011;60613;48.658;2.328;2022-10-16T04:02:41;0.80;;;0.40;;
72575;SDS011;60613;48.658;2.328;2022-10-16T04:05:07;1.07;;;0.43;;
72575;SDS011;60613;48.658;2.328;2022-10-16T04:07:33;1.27;;;0.32;;
72575;SDS011;60613;48.658;2.328;2022-10-16T04:09:59;0.97;;;0.47;;
72575;SDS011;60613;48.658;2.328;2022-10-16T04:12:25;1.60;;;0.40;;
72575;SDS011;60613;48.658;2.328;2022-10-16T04:14:51;1.60;;;0.40;;
72575;SDS011;60613;48.658;2.328;2022-10-16T04:17:16;1.83;;;0.40;;
72575;SDS011;60613;48.658;2.328;2022-10-16T04:19:42;1.20;;;0.40;;
72575;SDS011;60613;48.658;2.328;2022-10-16T04:22:08;0.85;;;0.40;;
72575;SDS011;60613;48.658;2.328;2022-10-16T04:24:33;1.77;;;0.50;;
72575;SDS011;60613;48.658;2.328;2022-10-16T04:26:59;0.55;;;0.30;;
72575;SDS011;60613;48.658;2.328;2022-10-16T04:29:25;1.87;;;0.60;;
72575;SDS011;60613;48.658;2.328;2022-10-16T04:31:50;1.33;;;0.40;;
72575;SDS011;60613;48.658;2.328;2022-10-16T04:34:16;0.53;;;0.30;;
72575;SDS011;60613;48.658;2.328;2022-10-16T04:36:41;1.15;;;0.40;;
72575;SDS011;60613;48.658;2.328;2022-10-16T04:39:07;0.80;;;0.30;;
72575;SDS011;60613;48.658;2.328;2022-10-16T04:41:33;1.30;;;0.40;;
72575;SDS011;60613;48.658;2.328;2022-10-16T04:43:58;1.17;;;0.50;;
72575;SDS011;60613;48.658;2.328;2022-10-16T04:46:24;1.80;;;0.50;;
72575;SDS011;60613;48.658;2.328;2022-10-16T04:48:49;2.55;;;0.45;;
72575;SDS011;60613;48.658;2.328;2022-10-16T04:51:15;0.80;;;0.37;;
72575;SDS011;60613;48.658;2.328;2022-10-16T04:53:40;1.08;;;0.40;;
72575;SDS011;60613;48.658;2.328;2022-10-16T04:56:06;1.30;;;0.40;;
72575;SDS011;60613;48.658;2.328;2022-10-16T04:58:32;0.50;;;0.30;;
72575;SDS011;60613;48.658;2.328;2022-10-16T05:00:57;1.30;;;0.40;;
72575;SDS011;60613;48.658;2.328;2022-10-16T05:03:23;1.45;;;0.38;;
72575;SDS011;60613;48.658;2.328;2022-10-16T05:05:49;1.23;;;0.30;;
72575;SDS011;60613;48.658;2.328;2022-10-16T05:08:15;1.17;;;0.40;;
72575;SDS011;60613;48.658;2.328;2022-10-16T05:10:42;1.00;;;0.40;;
72575;SDS011;60613;48.658;2.328;2022-10-16T05:13:08;0.57;;;0.30;;
72575;SDS011;60613;48.658;2.328;2022-10-16T05:15:34;0.50;;;0.32;;
72575;SDS011;60613;48.658;2.328;2022-10-16T05:17:59;0.85;;;0.40;;
72575;SDS011;60613;48.658;2.328;2022-10-16T05:20:25;1.10;;;0.30;;
72575;SDS011;60613;48.658;2.328;2022-10-16T05:22:51;0.70;;;0.40;;
72575;SDS011;60613;48.658;2.328;2022-10-16T05:25:16;0.55;;;0.35;;
72575;SDS011;60613;48.658;2.328;2022-10-16T05:27:42;0.90;;;0.40;;
72575;SDS011;60613;48.658;2.328;2022-10-16T05:30:08;0.93;;;0.40;;
72575;SDS011;60613;48.658;2.328;2022-10-16T05:32:34;2.00;;;0.30;;
72575;SDS011;60613;48.658;2.328;2022-10-16T05:34:59;1.90;;;0.40;;
72575;SDS011;60613;48.658;2.328;2022-10-16T05:37:27;1.92;;;0.40;;
72575;SDS011;60613;48.658;2.328;2022-10-16T05:39:52;1.20;;;0.40;;
72575;SDS011;60613;48.658;2.328;2022-10-16T05:42:18;1.80;;;0.50;;
72575;SDS011;60613;48.658;2.328;2022-10-16T05:44:43;2.05;;;0.43;;
72575;SDS011;60613;48.658;2.328;2022-10-16T05:47:09;0.60;;;0.30;;
72575;SDS011;60613;48.658;2.328;2022-10-16T05:49:35;0.75;;;0.40;;
72575;SDS011;60613;48.658;2.328;2022-10-16T05:52:01;0.80;;;0.40;;
72575;SDS011;60613;48.658;2.328;2022-10-16T05:54:27;1.38;;;0.55;;
72575;SDS011;60613;48.658;2.328;2022-10-16T05:56:52;1.37;;;0.40;;
72575;SDS011;60613;48.658;2.328;2022-10-16T05:59:18;0.63;;;0.30;;
72575;SDS011;60613;48.658;2.328;2022-10-16T06:01:43;0.73;;;0.40;;
72575;SDS011;60613;48.658;2.328;2022-10-16T06:04:09;2.27;;;0.50;;
72575;SDS011;60613;48.658;2.328;2022-10-16T06:06:35;0.57;;;0.38;;
72575;SDS011;60613;48.658;2.328;2022-10-16T06:09:01;0.73;;;0.40;;
72575;SDS011;60613;48.658;2.328;2022-10-16T06:11:29;0.68;;;0.40;;
72575;SDS011;60613;48.658;2.328;2022-10-16T06:13:56;0.87;;;0.43;;
72575;SDS011;60613;48.658;2.328;2022-10-16T06:16:24;1.83;;;0.40;;
72575;SDS011;60613;48.658;2.328;2022-10-16T06:18:51;0.73;;;0.30;;
72575;SDS011;60613;48.658;2.328;2022-10-16T06:21:18;1.83;;;0.40;;
72575;SDS011;60613;48.658;2.328;2022-10-16T06:23:46;1.60;;;0.40;;
72575;SDS011;60613;48.658;2.328;2022-10-16T06:26:13;2.83;;;0.57;;
72575;SDS011;60613;48.658;2.328;2022-10-16T06:28:40;0.68;;;0.35;;
72575;SDS011;60613;48.658;2.328;2022-10-16T06:31:07;1.33;;;0.40;;
72575;SDS011;60613;48.658;2.328;2022-10-16T06:33:34;2.17;;;0.40;;
72575;SDS011;60613;48.658;2.328;2022-10-16T06:36:04;1.00;;;0.30;;
72575;SDS011;60613;48.658;2.328;2022-10-16T06:38:33;1.33;;;0.45;;
72575;SDS011;60613;48.658;2.328;2022-10-16T06:40:59;1.35;;;0.40;;
72575;SDS011;60613;48.658;2.328;2022-10-16T06:43:24;1.00;;;0.40;;
72575;SDS011;60613;48.658;2.328;2022-10-16T06:45:52;1.15;;;0.50;;
72575;SDS011;60613;48.658;2.328;2022-10-16T06:48:17;1.25;;;0.30;;
72575;SDS011;60613;48.658;2.328;2022-10-16T06:50:43;1.67;;;0.40;;
72575;SDS011;60613;48.658;2.328;2022-10-16T06:53:09;1.08;;;0.40;;
72575;SDS011;60613;48.658;2.328;2022-10-16T06:55:34;1.87;;;0.40;;
72575;SDS011;60613;48.658;2.328;2022-10-16T06:58:00;1.67;;;0.40;;
72575;SDS011;60613;48.658;2.328;2022-10-16T07:00:25;2.47;;;0.50;;
72575;SDS011;60613;48.658;2.328;2022-10-16T07:02:51;1.40;;;0.37;;
72575;SDS011;60613;48.658;2.328;2022-10-16T07:05:16;2.67;;;0.50;;
72575;SDS011;60613;48.658;2.328;2022-10-16T07:07:42;3.63;;;0.53;;
72575;SDS011;60613;48.658;2.328;2022-10-16T07:10:08;2.28;;;0.40;;
72575;SDS011;60613;48.658;2.328;2022-10-16T07:12:33;2.47;;;0.60;;
72575;SDS011;60613;48.658;2.328;2022-10-16T07:14:59;2.00;;;0.50;;
72575;SDS011;60613;48.658;2.328;2022-10-16T07:17:25;2.93;;;0.67;;
72575;SDS011;60613;48.658;2.328;2022-10-16T07:19:50;5.23;;;1.73;;
72575;SDS011;60613;48.658;2.328;2022-10-16T07:22:18;3.87;;;1.40;;
72575;SDS011;60613;48.658;2.328;2022-10-16T07:24:43;4.97;;;1.75;;
72575;SDS011;60613;48.658;2.328;2022-10-16T07:27:09;6.80;;;2.33;;
72575;SDS011;60613;48.658;2.328;2022-10-16T07:29:35;6.03;;;2.30;;
72575;SDS011;60613;48.658;2.328;2022-10-16T07:32:01;6.27;;;2.40;;
72575;SDS011;60613;48.658;2.328;2022-10-16T07:34:26;7.47;;;2.63;;
72575;SDS011;60613;48.658;2.328;2022-10-16T07:36:52;7.63;;;2.47;;
72575;SDS011;60613;48.658;2.328;2022-10-16T07:39:18;5.83;;;1.97;;
72575;SDS011;60613;48.658;2.328;2022-10-16T07:41:44;5.25;;;1.85;;
72575;SDS011;60613;48.658;2.328;2022-10-16T07:44:10;5.73;;;1.60;;
72575;SDS011;60613;48.658;2.328;2022-10-16T07:46:35;6.05;;;1.63;;
72575;SDS011;60613;48.658;2.328;2022-10-16T07:49:02;9.73;;;2.10;;
72575;SDS011;60613;48.658;2.328;2022-10-16T07:51:28;5.85;;;1.70;;
72575;SDS011;60613;48.658;2.328;2022-10-16T07:53:54;7.55;;;1.77;;
72575;SDS011;60613;48.658;2.328;2022-10-16T07:56:20;5.07;;;1.53;;
72575;SDS011;60613;48.658;2.328;2022-10-16T07:58:46;5.70;;;1.25;;
72575;SDS011;60613;48.658;2.328;2022-10-16T08:01:14;4.75;;;1.33;;
72575;SDS011;60613;48.658;2.328;2022-10-16T08:03:41;5.50;;;1.52;;
72575;SDS011;60613;48.658;2.328;2022-10-16T08:06:08;4.97;;;1.20;;
72575;SDS011;60613;48.658;2.328;2022-10-16T08:08:33;3.50;;;1.00;;
72575;SDS011;60613;48.658;2.328;2022-10-16T08:11:00;4.20;;;1.30;;
72575;SDS011;60613;48.658;2.328;2022-10-16T08:13:28;6.35;;;1.27;;
72575;SDS011;60613;48.658;2.328;2022-10-16T08:15:54;3.33;;;1.23;;
72575;SDS011;60613;48.658;2.328;2022-10-16T08:18:20;5.10;;;1.33;;
72575;SDS011;60613;48.658;2.328;2022-10-16T08:20:46;3.30;;;1.13;;
72575;SDS011;60613;48.658;2.328;2022-10-16T08:23:12;3.53;;;1.50;;
72575;SDS011;60613;48.658;2.328;2022-10-16T08:25:38;3.58;;;1.30;;
72575;SDS011;60613;48.658;2.328;2022-10-16T08:28:05;3.20;;;1.13;;
72575;SDS011;60613;48.658;2.328;2022-10-16T08:30:32;4.47;;;1.27;;
72575;SDS011;60613;48.658;2.328;2022-10-16T08:32:58;4.20;;;1.20;;
72575;SDS011;60613;48.658;2.328;2022-10-16T08:35:24;5.70;;;1.17;;
72575;SDS011;60613;48.658;2.328;2022-10-16T08:37:49;3.50;;;1.20;;
72575;SDS011;60613;48.658;2.328;2022-10-16T08:40:25;5.78;;;1.20;;
72575;SDS011;60613;48.658;2.328;2022-10-16T08:45:48;4.30;;;1.00;;
72575;SDS011;60613;48.658;2.328;2022-10-16T08:48:46;8.50;;;1.50;;
72575;SDS011;60613;48.658;2.328;2022-10-16T08:51:21;6.18;;;1.40;;
72575;SDS011;60613;48.658;2.328;2022-10-16T08:53:58;4.90;;;1.20;;
72575;SDS011;60613;48.658;2.328;2022-10-16T08:56:29;3.93;;;1.20;;
72575;SDS011;60613;48.658;2.328;2022-10-16T08:58:57;6.63;;;1.20;;
72575;SDS011;60613;48.658;2.328;2022-10-16T09:01:23;6.32;;;1.08;;
72575;SDS011;60613;48.658;2.328;2022-10-16T09:06:49;3.60;;;1.00;;
72575;SDS011;60613;48.658;2.328;2022-10-16T09:12:41;5.68;;;1.20;;
72575;SDS011;60613;48.658;2.328;2022-10-16T09:15:34;3.80;;;1.00;;
72575;SDS011;60613;48.658;2.328;2022-10-16T09:18:32;4.93;;;0.90;;
72575;SDS011;60613;48.658;2.328;2022-10-16T09:21:13;5.30;;;0.90;;
72575;SDS011;60613;48.658;2.328;2022-10-16T09:23:54;4.63;;;1.17;;
72575;SDS011;60613;48.658;2.328;2022-10-16T09:26:25;5.32;;;1.00;;
72575;SDS011;60613;48.658;2.328;2022-10-16T09:28:52;6.18;;;1.00;;
72575;SDS011;60613;48.658;2.328;2022-10-16T09:31:18;4.80;;;1.10;;
72575;SDS011;60613;48.658;2.328;2022-10-16T09:33:48;4.53;;;1.10;;
72575;SDS011;60613;48.658;2.328;2022-10-16T09:36:19;2.75;;;0.77;;
72575;SDS011;60613;48.658;2.328;2022-10-16T09:38:46;5.32;;;0.90;;
72575;SDS011;60613;48.658;2.328;2022-10-16T09:48:53;3.03;;;0.85;;
72575;SDS011;60613;48.658;2.328;2022-10-16T09:51:22;4.28;;;0.85;;
72575;SDS011;60613;48.658;2.328;2022-10-16T09:53:54;2.67;;;0.97;;
72575;SDS011;60613;48.658;2.328;2022-10-16T09:56:23;5.05;;;0.93;;
72575;SDS011;60613;48.658;2.328;2022-10-16T09:59:01;3.65;;;1.02;;
72575;SDS011;60613;48.658;2.328;2022-10-16T10:01:40;3.67;;;0.98;;
72575;SDS011;60613;48.658;2.328;2022-10-16T10:04:11;2.60;;;0.80;;
72575;SDS011;60613;48.658;2.328;2022-10-16T10:06:41;3.03;;;0.80;;
72575;SDS011;60613;48.658;2.328;2022-10-16T10:09:20;3.10;;;0.85;;
72575;SDS011;60613;48.658;2.328;2022-10-16T10:14:19;4.28;;;0.90;;
72575;SDS011;60613;48.658;2.328;2022-10-16T10:16:45;2.83;;;0.70;;
72575;SDS011;60613;48.658;2.328;2022-10-16T10:19:15;3.67;;;0.93;;
72575;SDS011;60613;48.658;2.328;2022-10-16T10:21:43;2.17;;;0.88;;
72575;SDS011;60613;48.658;2.328;2022-10-16T10:24:12;4.03;;;0.80;;
72575;SDS011;60613;48.658;2.328;2022-10-16T10:26:41;6.80;;;0.90;;
72575;SDS011;60613;48.658;2.328;2022-10-16T10:29:31;2.87;;;1.00;;
72575;SDS011;60613;48.658;2.328;2022-10-16T10:37:32;3.85;;;0.70;;
72575;SDS011;60613;48.658;2.328;2022-10-16T10:43:12;3.27;;;1.00;;
72575;SDS011;60613;48.658;2.328;2022-10-16T10:45:43;3.63;;;0.80;;
72575;SDS011;60613;48.658;2.328;2022-10-16T10:57:21;2.30;;;0.70;;
72575;SDS011;60613;48.658;2.328;2022-10-16T11:07:48;3.15;;;0.80;;
72575;SDS011;60613;48.658;2.328;2022-10-16T11:10:20;1.57;;;0.70;;
72575;SDS011;60613;48.658;2.328;2022-10-16T11:12:57;2.10;;;0.80;;
72575;SDS011;60613;48.658;2.328;2022-10-16T11:15:32;3.30;;;0.88;;
72575;SDS011;60613;48.658;2.328;2022-10-16T11:18:05;2.63;;;0.70;;
72575;SDS011;60613;48.658;2.328;2022-10-16T11:20:45;2.45;;;0.60;;
72575;SDS011;60613;48.658;2.328;2022-10-16T11:23:28;2.73;;;0.80;;
72575;SDS011;60613;48.658;2.328;2022-10-16T11:26:30;3.20;;;0.70;;
72575;SDS011;60613;48.658;2.328;2022-10-16T11:28:59;4.03;;;0.82;;
72575;SDS011;60613;48.658;2.328;2022-10-16T11:31:47;1.52;;;0.60;;
72575;SDS011;60613;48.658;2.328;2022-10-16T11:37:08;3.37;;;0.73;;
72575;SDS011;60613;48.658;2.328;2022-10-16T11:39:44;3.53;;;0.90;;
72575;SDS011;60613;48.658;2.328;2022-10-16T11:45:07;1.83;;;0.70;;
72575;SDS011;60613;48.658;2.328;2022-10-16T11:47:44;1.23;;;0.60;;
72575;SDS011;60613;48.658;2.328;2022-10-16T11:55:36;1.55;;;0.63;;
72575;SDS011;60613;48.658;2.328;2022-10-16T11:58:08;1.98;;;0.70;;
72575;SDS011;60613;48.658;2.328;2022-10-16T12:00:57;2.10;;;0.70;;
72575;SDS011;60613;48.658;2.328;2022-10-16T12:03:40;2.30;;;0.60;;
72575;SDS011;60613;48.658;2.328;2022-10-16T12:09:14;1.67;;;0.70;;
72575;SDS011;60613;48.658;2.328;2022-10-16T12:12:00;2.22;;;0.70;;
72575;SDS011;60613;48.658;2.328;2022-10-16T12:17:02;2.88;;;0.80;;
72575;SDS011;60613;48.658;2.328;2022-10-16T12:19:31;2.58;;;0.70;;
72575;SDS011;60613;48.658;2.328;2022-10-16T12:21:58;1.25;;;0.60;;
72575;SDS011;60613;48.658;2.328;2022-10-16T12:24:34;1.30;;;0.60;;
72575;SDS011;60613;48.658;2.328;2022-10-16T12:27:02;2.42;;;0.70;;
72575;SDS011;60613;48.658;2.328;2022-10-16T12:29:39;1.73;;;0.60;;
72575;SDS011;60613;48.658;2.328;2022-10-16T12:34:57;2.65;;;0.80;;
72575;SDS011;60613;48.658;2.328;2022-10-16T12:37:24;2.67;;;0.63;;
72575;SDS011;60613;48.658;2.328;2022-10-16T12:39:56;1.95;;;0.60;;
72575;SDS011;60613;48.658;2.328;2022-10-16T12:44:51;1.83;;;0.80;;
72575;SDS011;60613;48.658;2.328;2022-10-16T12:47:35;2.42;;;0.70;;
72575;SDS011;60613;48.658;2.328;2022-10-16T12:50:03;1.20;;;0.50;;
72575;SDS011;60613;48.658;2.328;2022-10-16T12:52:48;1.95;;;0.70;;
72575;SDS011;60613;48.658;2.328;2022-10-16T12:55:17;1.77;;;0.60;;
72575;SDS011;60613;48.658;2.328;2022-10-16T13:00:43;1.80;;;0.70;;
72575;SDS011;60613;48.658;2.328;2022-10-16T13:08:57;2.65;;;0.73;;
72575;SDS011;60613;48.658;2.328;2022-10-16T13:20:16;3.90;;;1.00;;
72575;SDS011;60613;48.658;2.328;2022-10-16T13:25:43;2.50;;;0.80;;
72575;SDS011;60613;48.658;2.328;2022-10-16T13:28:21;2.05;;;0.55;;
72575;SDS011;60613;48.658;2.328;2022-10-16T13:30:53;1.83;;;0.70;;
72575;SDS011;60613;48.658;2.328;2022-10-16T13:33:21;3.00;;;0.73;;
72575;SDS011;60613;48.658;2.328;2022-10-16T13:36:03;2.67;;;0.70;;
72575;SDS011;60613;48.658;2.328;2022-10-16T13:38:30;1.45;;;0.70;;
72575;SDS011;60613;48.658;2.328;2022-10-16T13:40:59;2.50;;;0.73;;
72575;SDS011;60613;48.658;2.328;2022-10-16T13:43:28;2.72;;;0.60;;
72575;SDS011;60613;48.658;2.328;2022-10-16T13:46:03;1.53;;;0.60;;
72575;SDS011;60613;48.658;2.328;2022-10-16T13:48:36;2.08;;;0.80;;
72575;SDS011;60613;48.658;2.328;2022-10-16T13:53:41;2.10;;;0.80;;
72575;SDS011;60613;48.658;2.328;2022-10-16T13:56:12;2.50;;;0.80;;
72575;SDS011;60613;48.658;2.328;2022-10-16T13:58:42;4.18;;;0.70;;
72575;SDS011;60613;48.658;2.328;2022-10-16T14:01:20;4.25;;;0.65;;
72575;SDS011;60613;48.658;2.328;2022-10-16T14:03:50;1.83;;;0.77;;
72575;SDS011;60613;48.658;2.328;2022-10-16T14:06:20;2.47;;;0.73;;
72575;SDS011;60613;48.658;2.328;2022-10-16T14:08:52;2.38;;;0.70;;
72575;SDS011;60613;48.658;2.328;2022-10-16T14:11:46;2.42;;;0.80;;
72575;SDS011;60613;48.658;2.328;2022-10-16T14:14:16;1.50;;;0.70;;
72575;SDS011;60613;48.658;2.328;2022-10-16T14:16:43;3.47;;;0.90;;
72575;SDS011;60613;48.658;2.328;2022-10-16T14:19:15;2.07;;;0.80;;
72575;SDS011;60613;48.658;2.328;2022-10-16T14:21:51;2.25;;;0.90;;
72575;SDS011;60613;48.658;2.328;2022-10-16T14:26:55;3.35;;;0.90;;
72575;SDS011;60613;48.658;2.328;2022-10-16T14:29:21;2.10;;;0.80;;
72575;SDS011;60613;48.658;2.328;2022-10-16T14:31:55;2.17;;;0.80;;
72575;SDS011;60613;48.658;2.328;2022-10-16T14:36:55;2.00;;;0.80;;
72575;SDS011;60613;48.658;2.328;2022-10-16T14:39:22;2.75;;;0.80;;
72575;SDS011;60613;48.658;2.328;2022-10-16T14:41:51;2.78;;;0.90;;
72575;SDS011;60613;48.658;2.328;2022-10-16T14:44:17;1.80;;;0.70;;
72575;SDS011;60613;48.658;2.328;2022-10-16T14:46:46;2.20;;;0.90;;
72575;SDS011;60613;48.658;2.328;2022-10-16T14:51:40;3.03;;;0.80;;
72575;SDS011;60613;48.658;2.328;2022-10-16T14:54:08;1.92;;;0.77;;
72575;SDS011;60613;48.658;2.328;2022-10-16T15:01:57;2.78;;;0.80;;
72575;SDS011;60613;48.658;2.328;2022-10-16T15:04:23;1.10;;;0.70;;
72575;SDS011;60613;48.658;2.328;2022-10-16T15:06:48;3.53;;;0.80;;
72575;SDS011;60613;48.658;2.328;2022-10-16T15:09:14;3.38;;;0.80;;
72575;SDS011;60613;48.658;2.328;2022-10-16T15:11:40;2.83;;;1.00;;
72575;SDS011;60613;48.658;2.328;2022-10-16T15:14:08;1.67;;;0.80;;
72575;SDS011;60613;48.658;2.328;2022-10-16T15:16:37;2.85;;;0.80;;
72575;SDS011;60613;48.658;2.328;2022-10-16T15:19:03;2.17;;;0.80;;
72575;SDS011;60613;48.658;2.328;2022-10-16T15:21:29;2.47;;;1.00;;
72575;SDS011;60613;48.658;2.328;2022-10-16T15:23:57;2.35;;;0.80;;
72575;SDS011;60613;48.658;2.328;2022-10-16T15:26:24;2.17;;;0.90;;
72575;SDS011;60613;48.658;2.328;2022-10-16T15:28:50;2.58;;;0.77;;
72575;SDS011;60613;48.658;2.328;2022-10-16T15:31:16;1.95;;;0.80;;
72575;SDS011;60613;48.658;2.328;2022-10-16T15:33:42;1.97;;;0.80;;
72575;SDS011;60613;48.658;2.328;2022-10-16T15:36:08;3.22;;;0.85;;
72575;SDS011;60613;48.658;2.328;2022-10-16T15:38:34;2.55;;;0.90;;
72575;SDS011;60613;48.658;2.328;2022-10-16T15:41:00;2.93;;;0.80;;
72575;SDS011;60613;48.658;2.328;2022-10-16T15:43:25;6.00;;;0.98;;
72575;SDS011;60613;48.658;2.328;2022-10-16T15:46:01;2.90;;;0.80;;
72575;SDS011;60613;48.658;2.328;2022-10-16T15:48:29;3.45;;;0.82;;
72575;SDS011;60613;48.658;2.328;2022-10-16T15:50:55;1.88;;;0.80;;
72575;SDS011;60613;48.658;2.328;2022-10-16T15:53:20;2.17;;;0.80;;
72575;SDS011;60613;48.658;2.328;2022-10-16T15:55:46;3.92;;;0.90;;
72575;SDS011;60613;48.658;2.328;2022-10-16T15:58:11;3.03;;;0.70;;
72575;SDS011;60613;48.658;2.328;2022-10-16T16:00:37;2.40;;;0.80;;
72575;SDS011;60613;48.658;2.328;2022-10-16T16:03:03;3.03;;;0.70;;
72575;SDS011;60613;48.658;2.328;2022-10-16T16:05:29;3.20;;;0.80;;
72575;SDS011;60613;48.658;2.328;2022-10-16T16:07:54;1.80;;;0.80;;
72575;SDS011;60613;48.658;2.328;2022-10-16T16:10:21;1.80;;;0.70;;
72575;SDS011;60613;48.658;2.328;2022-10-16T16:12:47;3.55;;;0.85;;
72575;SDS011;60613;48.658;2.328;2022-10-16T16:15:21;2.92;;;0.80;;
72575;SDS011;60613;48.658;2.328;2022-10-16T16:17:48;1.73;;;0.70;;
72575;SDS011;60613;48.658;2.328;2022-10-16T16:20:14;4.57;;;0.90;;
72575;SDS011;60613;48.658;2.328;2022-10-16T16:22:40;3.90;;;0.80;;
72575;SDS011;60613;48.658;2.328;2022-10-16T16:25:05;2.53;;;0.80;;
72575;SDS011;60613;48.658;2.328;2022-10-16T16:27:31;2.60;;;0.90;;
72575;SDS011;60613;48.658;2.328;2022-10-16T16:30:00;3.45;;;0.80;;
72575;SDS011;60613;48.658;2.328;2022-10-16T16:32:28;3.67;;;0.90;;
72575;SDS011;60613;48.658;2.328;2022-10-16T16:34:54;3.00;;;0.87;;
72575;SDS011;60613;48.658;2.328;2022-10-16T16:37:19;1.52;;;0.75;;
72575;SDS011;60613;48.658;2.328;2022-10-16T16:39:45;2.67;;;0.80;;
72575;SDS011;60613;48.658;2.328;2022-10-16T16:42:10;3.28;;;0.82;;
72575;SDS011;60613;48.658;2.328;2022-10-16T16:44:36;1.83;;;0.70;;
72575;SDS011;60613;48.658;2.328;2022-10-16T16:47:03;1.88;;;0.80;;
72575;SDS011;60613;48.658;2.328;2022-10-16T16:49:29;2.58;;;0.80;;